createdAt,value
2019-03-21T00:02:21.824Z,99.90
2019-03-21T00:04:55.001Z,99.90
2019-03-21T00:07:25.115Z,99.90
2019-03-21T00:10:37.003Z,99.90
2019-03-21T00:13:07.216Z,99.90
2019-03-21T00:15:40.276Z,99.90
2019-03-21T00:18:12.531Z,99.90
2019-03-21T00:20:42.790Z,99.90
2019-03-21T00:23:12.944Z,99.90
2019-03-21T00:25:43.326Z,99.90
2019-03-21T00:28:13.652Z,99.90
2019-03-21T00:30:43.986Z,99.90
2019-03-21T00:33:14.318Z,99.90
2019-03-21T00:35:44.520Z,99.90
2019-03-21T00:38:14.652Z,99.90
2019-03-21T00:40:44.837Z,99.90
2019-03-21T00:43:14.924Z,99.90
2019-03-21T00:45:45.014Z,99.90
2019-03-21T00:48:16.761Z,99.90
2019-03-21T00:50:46.870Z,99.90
2019-03-21T00:53:17.044Z,99.90
2019-03-21T00:55:48.024Z,99.90
2019-03-21T00:58:18.232Z,99.90
2019-03-21T01:01:07.220Z,99.90
2019-03-21T01:03:37.436Z,99.90
2019-03-21T01:06:07.601Z,99.90
2019-03-21T01:08:37.892Z,99.90
2019-03-21T01:11:08.232Z,99.90
2019-03-21T01:13:38.568Z,99.90
2019-03-21T01:16:08.795Z,99.90
2019-03-21T01:18:39.574Z,99.90
2019-03-21T01:21:09.771Z,99.90
2019-03-21T01:23:40.162Z,99.90
2019-03-21T01:26:10.432Z,99.90
2019-03-21T01:28:40.533Z,99.90
2019-03-21T01:31:10.648Z,99.90
2019-03-21T01:33:40.944Z,99.90
2019-03-21T01:36:11.356Z,99.90
2019-03-21T01:38:41.489Z,99.90
2019-03-21T01:41:11.912Z,99.90
2019-03-21T01:43:41.996Z,99.90
2019-03-21T01:46:12.848Z,99.90
2019-03-21T01:48:42.985Z,99.90
2019-03-21T01:51:13.116Z,99.90
2019-03-21T01:53:43.249Z,99.90
2019-03-21T01:56:13.397Z,99.90
2019-03-21T01:58:43.495Z,99.90
2019-03-21T02:01:13.657Z,99.90
2019-03-21T02:04:02.691Z,99.90
2019-03-21T02:06:33.045Z,99.90
2019-03-21T02:09:04.961Z,99.90
2019-03-21T02:11:35.286Z,99.90
2019-03-21T02:14:05.555Z,99.90
2019-03-21T02:16:35.666Z,99.90
2019-03-21T02:19:05.773Z,99.90
2019-03-21T02:21:35.889Z,99.90
2019-03-21T02:24:07.153Z,99.90
2019-03-21T02:26:37.328Z,99.90
2019-03-21T02:29:07.407Z,99.90
2019-03-21T02:31:37.604Z,99.90
2019-03-21T02:34:08.242Z,99.90
2019-03-21T02:36:38.571Z,99.90
2019-03-21T02:39:09.253Z,99.90
2019-03-21T02:41:39.607Z,99.90
2019-03-21T02:44:09.777Z,99.90
2019-03-21T02:46:40.230Z,99.90
2019-03-21T02:49:10.334Z,99.90
2019-03-21T02:51:40.526Z,99.90
2019-03-21T02:54:10.699Z,99.90
2019-03-21T02:56:40.792Z,99.90
2019-03-21T02:59:10.930Z,99.90
2019-03-21T03:01:41.028Z,99.90
2019-03-21T03:04:11.166Z,99.90
2019-03-21T03:06:41.320Z,99.90
2019-03-21T03:09:11.696Z,99.90
2019-03-21T03:11:41.979Z,99.90
2019-03-21T03:14:12.334Z,99.90
2019-03-21T03:16:42.718Z,99.90
2019-03-21T03:19:12.840Z,99.90
2019-03-21T03:21:42.999Z,99.90
2019-03-21T03:24:13.093Z,99.90
2019-03-21T03:26:43.240Z,99.90
2019-03-21T03:29:13.365Z,99.90
2019-03-21T03:31:43.637Z,99.90
2019-03-21T03:34:13.920Z,99.90
2019-03-21T03:36:44.240Z,99.90
2019-03-21T03:39:33.235Z,99.90
2019-03-21T03:42:05.499Z,99.90
2019-03-21T03:44:35.660Z,99.90
2019-03-21T03:47:05.983Z,99.90
2019-03-21T03:49:36.179Z,99.90
2019-03-21T03:52:06.549Z,99.90
2019-03-21T03:54:36.955Z,99.90
2019-03-21T03:57:07.097Z,99.90
2019-03-21T03:59:37.334Z,99.90
2019-03-21T04:02:07.431Z,99.90
2019-03-21T04:04:37.884Z,99.90
2019-03-21T04:07:07.998Z,99.90
2019-03-21T04:09:38.119Z,99.90
2019-03-21T04:12:08.729Z,99.90
2019-03-21T04:14:39.240Z,99.90
2019-03-21T04:17:09.594Z,99.90
2019-03-21T04:19:39.944Z,99.90
2019-03-21T04:22:10.181Z,99.90
2019-03-21T04:24:40.321Z,99.90
2019-03-21T04:27:10.496Z,99.90
2019-03-21T04:29:40.598Z,99.90
2019-03-21T04:32:10.799Z,99.90
2019-03-21T04:34:43.293Z,99.90
2019-03-21T04:37:13.442Z,99.90
2019-03-21T04:39:43.590Z,99.90
2019-03-21T04:42:17.517Z,99.90
2019-03-21T04:44:47.669Z,99.90
2019-03-21T04:47:17.862Z,99.90
2019-03-21T04:49:48.036Z,99.90
2019-03-21T04:52:18.279Z,99.90
2019-03-21T04:54:48.428Z,99.90
2019-03-21T04:57:18.556Z,99.90
2019-03-21T04:59:48.744Z,99.90
2019-03-21T05:02:18.970Z,99.90
2019-03-21T05:04:49.143Z,99.90
2019-03-21T05:07:19.363Z,99.90
2019-03-21T05:09:49.503Z,99.90
2019-03-21T05:12:19.883Z,99.90
2019-03-21T05:14:50.093Z,99.90
2019-03-21T05:17:20.302Z,99.90
2019-03-21T05:19:50.504Z,99.90
2019-03-21T05:22:20.689Z,99.90
2019-03-21T05:24:50.929Z,99.90
2019-03-21T05:27:21.232Z,99.90
2019-03-21T05:29:51.452Z,99.90
2019-03-21T05:32:21.785Z,99.90
2019-03-21T05:34:52.078Z,99.90
2019-03-21T05:37:22.392Z,99.90
2019-03-21T05:39:52.503Z,99.90
2019-03-21T05:42:24.144Z,99.90
2019-03-21T05:44:54.225Z,99.90
2019-03-21T05:47:24.641Z,99.90
2019-03-21T05:49:54.943Z,99.90
2019-03-21T05:52:25.211Z,99.90
2019-03-21T05:54:55.435Z,99.90
2019-03-21T05:57:25.839Z,99.90
2019-03-21T05:59:56.147Z,99.90
2019-03-21T06:02:26.293Z,99.90
2019-03-21T06:04:56.573Z,99.90
2019-03-21T06:07:41.373Z,99.90
2019-03-21T06:10:12.845Z,99.90
2019-03-21T06:12:45.903Z,99.90
2019-03-21T06:15:18.915Z,99.90
2019-03-21T06:18:00.010Z,99.90
2019-03-21T06:20:56.558Z,99.90
2019-03-21T06:23:57.178Z,99.90
2019-03-21T06:26:50.488Z,99.90
2019-03-21T06:29:20.785Z,99.90
2019-03-21T06:31:50.954Z,99.90
2019-03-21T06:34:21.203Z,99.90
2019-03-21T06:36:51.450Z,99.90
2019-03-21T06:39:21.725Z,99.90
2019-03-21T06:41:51.869Z,99.90
2019-03-21T06:44:22.173Z,99.90
2019-03-21T06:46:52.612Z,99.90
2019-03-21T06:49:22.737Z,99.90
2019-03-21T06:51:53.135Z,99.80
2019-03-21T06:54:23.450Z,99.90
2019-03-21T06:56:53.788Z,99.90
2019-03-21T06:59:23.940Z,99.30
2019-03-21T07:01:54.339Z,98.70
2019-03-21T07:04:24.589Z,97.80
2019-03-21T07:06:55.058Z,98.40
2019-03-21T07:09:25.238Z,98.10
2019-03-21T07:11:55.547Z,97.40
2019-03-21T07:14:25.994Z,97.60
2019-03-21T07:17:00.327Z,97.10
2019-03-21T07:19:28.288Z,94.90
2019-03-21T07:21:58.416Z,94.00
2019-03-21T07:24:28.624Z,93.80
2019-03-21T07:26:58.874Z,94.00
2019-03-21T07:29:29.538Z,94.00
2019-03-21T07:31:59.780Z,92.90
2019-03-21T07:34:30.104Z,91.70
2019-03-21T07:37:00.250Z,90.70
2019-03-21T07:39:30.552Z,90.80
2019-03-21T07:42:01.550Z,89.60
2019-03-21T07:44:31.784Z,88.50
2019-03-21T07:47:12.324Z,89.10
2019-03-21T07:49:33.878Z,87.60
2019-03-21T07:52:04.068Z,89.50
2019-03-21T07:54:34.306Z,90.10
2019-03-21T07:57:04.672Z,89.20
2019-03-21T07:59:34.891Z,86.20
2019-03-21T08:02:05.346Z,83.90
2019-03-21T08:04:35.607Z,83.70
2019-03-21T08:07:05.945Z,82.60
2019-03-21T08:09:36.254Z,82.80
2019-03-21T08:12:06.697Z,78.10
2019-03-21T08:14:37.048Z,79.80
2019-03-21T08:17:07.442Z,79.10
2019-03-21T08:19:37.782Z,79.50
2019-03-21T08:22:07.901Z,75.00
2019-03-21T08:24:38.018Z,72.00
2019-03-21T08:27:08.319Z,70.70
2019-03-21T08:29:38.671Z,71.80
2019-03-21T08:32:08.883Z,75.20
2019-03-21T08:34:38.983Z,70.90
2019-03-21T08:37:09.243Z,66.30
2019-03-21T08:39:39.565Z,68.00
2019-03-21T08:42:09.783Z,68.60
2019-03-21T08:44:40.006Z,65.60
2019-03-21T08:47:10.309Z,64.20
2019-03-21T08:49:40.569Z,63.50
2019-03-21T08:52:10.894Z,59.30
2019-03-21T08:54:41.107Z,60.80
2019-03-21T08:57:11.393Z,58.20
2019-03-21T08:59:41.637Z,60.50
2019-03-21T09:02:11.981Z,60.60
2019-03-21T09:04:42.185Z,58.90
2019-03-21T09:07:12.565Z,54.40
2019-03-21T09:09:42.809Z,54.20
2019-03-21T09:12:13.069Z,54.70
2019-03-21T09:14:43.487Z,53.60
2019-03-21T09:17:13.833Z,53.20
2019-03-21T09:19:44.055Z,53.30
2019-03-21T09:22:16.000Z,53.10
2019-03-21T09:24:46.585Z,53.10
2019-03-21T09:27:16.804Z,54.30
2019-03-21T09:29:53.350Z,54.70
2019-03-21T09:32:19.238Z,56.80
2019-03-21T09:34:49.581Z,55.20
2019-03-21T09:37:19.743Z,55.80
2019-03-21T09:39:50.222Z,56.40
2019-03-21T09:42:20.609Z,56.20
2019-03-21T09:44:50.918Z,57.60
2019-03-21T09:47:21.969Z,58.70
2019-03-21T09:49:52.357Z,59.40
2019-03-21T09:52:22.545Z,58.40
2019-03-21T09:54:52.653Z,58.20
2019-03-21T09:57:22.850Z,57.10
2019-03-21T09:59:53.133Z,56.40
2019-03-21T10:02:23.397Z,57.10
2019-03-21T10:04:53.549Z,56.00
2019-03-21T10:07:23.742Z,56.00
2019-03-21T10:09:54.197Z,58.20
2019-03-21T10:12:24.399Z,57.20
2019-03-21T10:14:54.795Z,57.70
2019-03-21T10:17:25.028Z,54.30
2019-03-21T10:19:55.190Z,56.60
2019-03-21T10:22:25.314Z,55.60
2019-03-21T10:24:55.533Z,53.30
2019-03-21T10:27:25.604Z,51.50
2019-03-21T10:29:55.825Z,52.00
2019-03-21T10:32:25.943Z,51.50
2019-03-21T10:34:56.263Z,49.00
2019-03-21T10:37:26.392Z,48.50
2019-03-21T10:39:56.668Z,48.10
2019-03-21T10:42:26.952Z,48.10
2019-03-21T10:44:57.239Z,49.40
2019-03-21T10:47:27.614Z,47.80
2019-03-21T10:49:58.013Z,47.70
2019-03-21T10:52:28.155Z,47.00
2019-03-21T10:54:58.278Z,47.40
2019-03-21T10:57:28.394Z,45.90
2019-03-21T11:00:01.305Z,45.80
2019-03-21T11:02:30.538Z,46.30
2019-03-21T11:05:00.908Z,46.50
2019-03-21T11:07:30.988Z,46.00
2019-03-21T11:10:01.467Z,47.00
2019-03-21T11:12:31.762Z,47.30
2019-03-21T11:15:02.169Z,47.10
2019-03-21T11:17:32.510Z,47.50
2019-03-21T11:20:02.786Z,45.60
2019-03-21T11:22:33.163Z,45.50
2019-03-21T11:25:03.362Z,46.90
2019-03-21T11:27:33.725Z,46.30
2019-03-21T11:30:15.405Z,44.90
2019-03-21T11:32:35.876Z,44.40
2019-03-21T11:35:06.242Z,47.40
2019-03-21T11:37:36.638Z,44.20
2019-03-21T11:40:07.154Z,43.70
2019-03-21T11:42:37.305Z,43.70
2019-03-21T11:45:08.420Z,45.70
2019-03-21T11:47:42.181Z,46.40
2019-03-21T11:50:10.846Z,44.50
2019-03-21T11:52:41.373Z,42.70
2019-03-21T11:55:12.210Z,45.00
2019-03-21T11:57:42.489Z,44.50
2019-03-21T12:00:13.345Z,44.50
2019-03-21T12:02:43.631Z,42.70
2019-03-21T12:05:13.925Z,43.20
2019-03-21T12:07:44.047Z,42.80
2019-03-21T12:10:14.402Z,44.10
2019-03-21T12:12:44.590Z,42.30
2019-03-21T12:15:15.014Z,42.30
2019-03-21T12:17:45.093Z,43.40
2019-03-21T12:20:16.931Z,42.00
2019-03-21T12:22:47.473Z,42.60
2019-03-21T12:25:17.931Z,43.70
2019-03-21T12:27:48.088Z,44.40
2019-03-21T12:30:21.957Z,43.10
2019-03-21T12:32:52.089Z,42.60
2019-03-21T12:35:22.169Z,42.80
2019-03-21T12:37:52.309Z,43.30
2019-03-21T12:40:22.637Z,43.80
2019-03-21T12:42:52.723Z,43.70
2019-03-21T12:45:23.119Z,43.30
2019-03-21T12:47:53.650Z,42.50
2019-03-21T12:50:24.065Z,42.80
2019-03-21T12:52:54.376Z,43.10
2019-03-21T12:55:24.509Z,41.20
2019-03-21T12:57:54.693Z,41.40
2019-03-21T13:00:38.751Z,40.80
2019-03-21T13:03:09.419Z,40.60
2019-03-21T13:05:39.879Z,40.70
2019-03-21T13:08:10.236Z,41.40
2019-03-21T13:10:40.583Z,41.20
2019-03-21T13:13:10.894Z,41.80
2019-03-21T13:15:41.051Z,41.60
2019-03-21T13:18:11.434Z,41.60
2019-03-21T13:20:41.673Z,41.60
2019-03-21T13:23:12.368Z,40.50
2019-03-21T13:25:42.720Z,41.20
2019-03-21T13:28:13.194Z,41.80
2019-03-21T13:30:43.387Z,41.70
2019-03-21T13:33:13.630Z,41.10
2019-03-21T13:35:43.822Z,40.60
2019-03-21T13:38:13.952Z,41.70
2019-03-21T13:40:44.127Z,40.70
2019-03-21T13:43:14.322Z,41.50
2019-03-21T13:45:44.814Z,40.70
2019-03-21T13:48:14.971Z,41.80
2019-03-21T13:50:45.159Z,42.70
2019-03-21T13:53:19.037Z,40.50
2019-03-21T13:55:47.698Z,41.10
2019-03-21T13:58:17.968Z,41.50
2019-03-21T14:00:48.203Z,41.60
2019-03-21T14:03:25.179Z,42.70
2019-03-21T14:05:50.525Z,43.00
2019-03-21T14:08:20.820Z,42.60
2019-03-21T14:10:51.228Z,42.70
2019-03-21T14:13:21.552Z,42.20
2019-03-21T14:15:52.007Z,41.10
2019-03-21T14:18:22.313Z,40.90
2019-03-21T14:20:52.687Z,40.30
2019-03-21T14:23:23.053Z,40.70
2019-03-21T14:25:53.480Z,41.10
2019-03-21T14:28:23.814Z,42.20
2019-03-21T14:30:54.140Z,42.70
2019-03-21T14:33:24.558Z,41.70
2019-03-21T14:35:55.011Z,42.50
2019-03-21T14:38:26.649Z,41.60
2019-03-21T14:40:57.124Z,41.20
2019-03-21T14:43:27.298Z,41.80
2019-03-21T14:45:57.648Z,41.10
2019-03-21T14:48:27.936Z,41.20
2019-03-21T14:50:58.292Z,40.00
2019-03-21T14:53:29.339Z,40.90
2019-03-21T14:55:59.760Z,40.40
2019-03-21T14:58:30.072Z,40.10
2019-03-21T15:01:00.262Z,40.20
2019-03-21T15:03:30.619Z,40.90
2019-03-21T15:06:01.108Z,41.40
2019-03-21T15:08:31.296Z,40.20
2019-03-21T15:11:01.610Z,40.80
2019-03-21T15:13:31.886Z,41.30
2019-03-21T15:16:02.129Z,39.40
2019-03-21T15:18:32.384Z,40.50
2019-03-21T15:21:02.857Z,40.10
2019-03-21T15:23:40.527Z,39.30
2019-03-21T15:26:05.298Z,39.90
2019-03-21T15:28:35.650Z,41.00
2019-03-21T15:31:05.849Z,41.80
2019-03-21T15:33:36.186Z,41.70
2019-03-21T15:36:06.447Z,40.90
2019-03-21T15:38:36.571Z,40.80
2019-03-21T15:41:07.076Z,41.20
2019-03-21T15:43:37.395Z,41.70
2019-03-21T15:46:07.728Z,40.80
2019-03-21T15:48:38.151Z,40.80
2019-03-21T15:51:08.576Z,41.00
2019-03-21T15:53:38.757Z,40.60
2019-03-21T15:56:09.230Z,40.30
2019-03-21T15:58:39.736Z,40.80
2019-03-21T16:01:10.188Z,41.40
2019-03-21T16:03:40.405Z,40.50
2019-03-21T16:06:10.809Z,40.60
2019-03-21T16:08:40.952Z,40.60
2019-03-21T16:11:11.171Z,40.60
2019-03-21T16:13:41.553Z,40.60
2019-03-21T16:16:13.135Z,39.90
2019-03-21T16:18:43.275Z,40.30
2019-03-21T16:21:13.400Z,40.90
2019-03-21T16:23:43.617Z,40.30
2019-03-21T16:26:13.853Z,40.50
2019-03-21T16:28:44.255Z,40.40
2019-03-21T16:31:14.568Z,40.50
2019-03-21T16:33:44.712Z,40.70
2019-03-21T16:36:15.028Z,41.10
2019-03-21T16:38:45.226Z,41.50
2019-03-21T16:41:15.407Z,41.10
2019-03-21T16:43:45.715Z,41.00
2019-03-21T16:46:16.025Z,40.80
2019-03-21T16:48:46.405Z,40.90
2019-03-21T16:51:16.805Z,40.90
2019-03-21T16:53:47.205Z,41.50
2019-03-21T16:56:18.581Z,41.60
2019-03-21T16:58:52.131Z,41.50
2019-03-21T17:01:22.456Z,42.00
2019-03-21T17:03:52.690Z,42.40
2019-03-21T17:06:23.050Z,42.70
2019-03-21T17:08:53.440Z,43.00
2019-03-21T17:11:23.733Z,43.10
2019-03-21T17:13:54.115Z,43.90
2019-03-21T17:16:24.379Z,44.20
2019-03-21T17:18:54.717Z,45.20
2019-03-21T17:21:24.929Z,45.40
2019-03-21T17:23:57.921Z,45.70
2019-03-21T17:26:28.410Z,45.80
2019-03-21T17:28:58.600Z,46.80
2019-03-21T17:31:29.069Z,46.70
2019-03-21T17:33:59.542Z,47.00
2019-03-21T17:36:29.952Z,47.50
2019-03-21T17:39:00.212Z,48.30
2019-03-21T17:41:30.418Z,48.00
2019-03-21T17:44:00.629Z,49.00
2019-03-21T17:46:30.996Z,49.70
2019-03-21T17:49:01.314Z,49.50
2019-03-21T17:51:31.434Z,51.00
2019-03-21T17:54:01.528Z,52.30
2019-03-21T17:56:31.888Z,53.20
2019-03-21T17:59:02.242Z,54.50
2019-03-21T18:01:32.831Z,55.70
2019-03-21T18:04:03.536Z,57.30
2019-03-21T18:06:33.804Z,59.10
2019-03-21T18:09:04.857Z,61.20
2019-03-21T18:11:35.031Z,62.80
2019-03-21T18:14:05.177Z,65.80
2019-03-21T18:16:35.363Z,71.60
2019-03-21T18:19:05.586Z,76.20
2019-03-21T18:21:35.900Z,80.30
2019-03-21T18:24:06.122Z,83.30
2019-03-21T18:26:36.156Z,84.60
2019-03-21T18:29:06.297Z,87.00
2019-03-21T18:31:36.732Z,88.20
2019-03-21T18:34:06.979Z,89.90
2019-03-21T18:36:37.110Z,90.20
2019-03-21T18:39:09.004Z,90.20
2019-03-21T18:41:39.148Z,90.30
2019-03-21T18:44:09.375Z,90.30
2019-03-21T18:46:39.492Z,90.60
2019-03-21T18:49:09.662Z,90.90
2019-03-21T18:51:41.619Z,91.60
2019-03-21T18:54:11.771Z,92.00
2019-03-21T18:56:41.899Z,92.60
2019-03-21T18:59:12.055Z,92.50
2019-03-21T19:01:42.207Z,92.10
2019-03-21T19:04:12.349Z,92.30
2019-03-21T19:06:42.535Z,92.90
2019-03-21T19:09:12.746Z,93.60
2019-03-21T19:11:42.897Z,93.60
2019-03-21T19:14:13.058Z,94.00
2019-03-21T19:16:43.173Z,94.50
2019-03-21T19:19:13.328Z,95.20
2019-03-21T19:21:43.460Z,95.30
2019-03-21T19:24:13.615Z,95.30
2019-03-21T19:26:43.758Z,95.60
2019-03-21T19:29:15.068Z,96.30
2019-03-21T19:31:45.514Z,96.90
2019-03-21T19:34:15.634Z,97.00
2019-03-21T19:36:45.767Z,97.00
2019-03-21T19:39:15.897Z,98.00
2019-03-21T19:41:47.777Z,97.80
2019-03-21T19:44:18.110Z,97.90
2019-03-21T19:46:48.235Z,98.30
2019-03-21T19:49:18.423Z,98.00
2019-03-21T19:51:48.559Z,98.30
2019-03-21T19:54:18.773Z,98.00
2019-03-21T19:56:48.904Z,98.20
2019-03-21T19:59:19.075Z,98.70
2019-03-21T20:01:49.187Z,98.80
2019-03-21T20:04:19.304Z,99.00
2019-03-21T20:06:49.477Z,99.40
2019-03-21T20:09:19.649Z,99.60
2019-03-21T20:11:49.797Z,99.80
2019-03-21T20:14:19.919Z,99.90
2019-03-21T20:16:50.082Z,99.90
2019-03-21T20:19:20.215Z,99.90
2019-03-21T20:21:50.376Z,99.90
2019-03-21T20:24:20.479Z,99.90
2019-03-21T20:26:50.635Z,99.90
2019-03-21T20:29:20.735Z,99.90
2019-03-21T20:31:50.854Z,99.90
2019-03-21T20:34:20.993Z,99.90
2019-03-21T20:36:51.094Z,99.90
2019-03-21T20:39:21.212Z,99.90
2019-03-21T20:41:57.353Z,99.90
2019-03-21T20:44:27.460Z,99.90
2019-03-21T20:46:57.595Z,99.90
2019-03-21T20:49:27.757Z,99.90
2019-03-21T20:51:57.907Z,99.90
2019-03-21T20:54:28.018Z,99.90
2019-03-21T20:56:58.162Z,99.90
2019-03-21T20:59:28.279Z,99.90
2019-03-21T21:02:02.908Z,99.90
2019-03-21T21:04:30.157Z,99.90
2019-03-21T21:07:01.830Z,99.90
2019-03-21T21:09:31.940Z,99.90
2019-03-21T21:12:05.114Z,99.90
2019-03-21T21:14:35.261Z,99.90
2019-03-21T21:17:05.351Z,99.90
2019-03-21T21:19:35.511Z,99.90
2019-03-21T21:22:05.616Z,99.90
2019-03-21T21:24:35.836Z,99.90
2019-03-21T21:27:06.076Z,99.90
2019-03-21T21:29:36.285Z,99.90
2019-03-21T21:32:06.496Z,99.90
2019-03-21T21:34:36.744Z,99.90
2019-03-21T21:37:06.882Z,99.90
2019-03-21T21:39:37.066Z,99.90
2019-03-21T21:42:07.208Z,99.90
2019-03-21T21:44:37.523Z,99.90
2019-03-21T21:47:07.609Z,99.90
2019-03-21T21:49:37.830Z,99.90
2019-03-21T21:52:07.960Z,99.90
2019-03-21T21:54:38.144Z,99.90
2019-03-21T21:57:08.310Z,99.90
2019-03-21T21:59:38.422Z,99.90
2019-03-21T22:02:08.554Z,99.90
2019-03-21T22:04:38.700Z,99.90
2019-03-21T22:07:08.810Z,99.90
2019-03-21T22:09:38.902Z,99.90
2019-03-21T22:12:09.088Z,99.90
2019-03-21T22:14:39.228Z,99.90
2019-03-21T22:17:09.369Z,99.90
2019-03-21T22:19:39.512Z,99.90
2019-03-21T22:22:09.624Z,99.90
2019-03-21T22:24:39.775Z,99.90
2019-03-21T22:27:09.889Z,99.90
2019-03-21T22:29:40.042Z,99.90
2019-03-21T22:32:10.149Z,99.90
2019-03-21T22:34:40.313Z,99.90
2019-03-21T22:37:10.476Z,99.90
2019-03-21T22:39:40.608Z,99.90
2019-03-21T22:42:10.749Z,99.90
2019-03-21T22:44:40.876Z,99.90
2019-03-21T22:47:10.996Z,99.90
2019-03-21T22:49:41.147Z,99.90
2019-03-21T22:52:11.258Z,99.90
2019-03-21T22:54:41.425Z,99.90
2019-03-21T22:57:11.488Z,99.90
2019-03-21T22:59:41.619Z,99.90
2019-03-21T23:02:11.635Z,99.90
2019-03-21T23:04:41.676Z,99.90
2019-03-21T23:07:11.734Z,99.90
2019-03-21T23:09:41.810Z,99.90
2019-03-21T23:12:11.847Z,99.90
2019-03-21T23:14:41.894Z,99.90
2019-03-21T23:17:11.922Z,99.90
2019-03-21T23:19:41.890Z,99.90
2019-03-21T23:22:11.918Z,99.90
2019-03-21T23:24:41.947Z,99.90
2019-03-21T23:27:11.969Z,99.90
2019-03-21T23:29:42.002Z,99.90
2019-03-21T23:32:12.068Z,99.90
2019-03-21T23:34:42.114Z,99.90
2019-03-21T23:37:12.130Z,99.90
2019-03-21T23:39:42.184Z,99.90
2019-03-21T23:42:12.214Z,99.90
2019-03-21T23:44:42.218Z,99.90
2019-03-21T23:47:12.251Z,99.90
2019-03-21T23:49:42.292Z,99.90
2019-03-21T23:52:12.316Z,99.90
2019-03-21T23:54:42.320Z,99.90
2019-03-21T23:57:12.364Z,99.90
2019-03-21T23:59:42.371Z,99.90
